Time;durP1;ratioP1;P1;durP2;ratioP2;P2;SDS_P1;SDS_P2;PMS_P1;PMS_P2;Temp;Humidity;BMP_temperature;BMP_pressure;BME280_temperature;BME280_humidity;BME280_pressure;Samples;Min_cycle;Max_cycle;Signal;HPM_P1;HPM_P2
2022/01/26 00:00:05;;;;;;;49.10;27.40;;;;;;;;;;4962618;28;20657;-63
2022/01/26 00:05:51;;;;;;;45.00;27.63;;;;;;;;;;4902674;28;20640;-63
2022/01/26 00:08:23;;;;;;;50.17;28.40;;;;;;;;;;4905382;28;20673;-62
2022/01/26 00:10:49;;;;;;;49.47;28.63;;;;;;;;;;4943714;28;20295;-62
2022/01/26 00:13:15;;;;;;;48.90;28.57;;;;;;;;;;4967287;28;20202;-62
2022/01/26 00:15:41;;;;;;;48.37;28.53;;;;;;;;;;4968970;28;20295;-64
2022/01/26 00:18:06;;;;;;;47.67;27.40;;;;;;;;;;4967832;28;20228;-63
2022/01/26 00:20:46;;;;;;;47.47;27.73;;;;;;;;;;4966729;28;20256;-61
2022/01/26 00:26:09;;;;;;;48.77;27.77;;;;;;;;;;4965287;28;20192;-62
2022/01/26 00:28:57;;;;;;;44.93;27.03;;;;;;;;;;4969958;28;20248;-62
2022/01/26 00:38:33;;;;;;;49.10;28.33;;;;;;;;;;4961714;28;20316;-62
2022/01/26 00:39:48;;;;;;;45.43;29.63;;;;;;;;;;4964239;28;20209;-64
2022/01/26 00:42:14;;;;;;;51.50;28.97;;;;;;;;;;4971500;28;20653;-62
2022/01/26 00:44:45;;;;;;;51.63;29.37;;;;;;;;;;4968965;28;20197;-62
2022/01/26 00:47:11;;;;;;;49.87;28.57;;;;;;;;;;4967481;28;20548;-62
2022/01/26 00:49:37;;;;;;;53.93;29.87;;;;;;;;;;4966315;28;20213;-62
2022/01/26 00:52:06;;;;;;;49.33;30.30;;;;;;;;;;4959283;28;20869;-64
2022/01/26 00:54:32;;;;;;;52.07;30.27;;;;;;;;;;4964908;28;20224;-64
2022/01/26 00:56:58;;;;;;;54.03;30.67;;;;;;;;;;4964778;28;20201;-62
2022/01/26 00:59:24;;;;;;;55.67;32.67;;;;;;;;;;4964859;28;20229;-62
2022/01/26 01:01:50;;;;;;;52.07;30.17;;;;;;;;;;4963786;28;20193;-62
2022/01/26 01:04:16;;;;;;;53.70;32.20;;;;;;;;;;4968251;28;20193;-61
2022/01/26 01:06:48;;;;;;;51.33;30.30;;;;;;;;;;4968942;28;20206;-63
2022/01/26 01:09:16;;;;;;;57.07;30.37;;;;;;;;;;4964629;28;20190;-62
2022/01/26 01:11:42;;;;;;;52.80;31.87;;;;;;;;;;4960638;28;20486;-63
2022/01/26 01:14:09;;;;;;;49.57;31.67;;;;;;;;;;4961378;28;20221;-62
2022/01/26 01:16:34;;;;;;;56.03;32.10;;;;;;;;;;4965566;28;20650;-62
2022/01/26 01:29:42;;;;;;;51.33;31.23;;;;;;;;;;4966677;28;20264;-63
2022/01/26 01:32:26;;;;;;;60.87;32.40;;;;;;;;;;4966761;28;20796;-62
2022/01/26 01:34:52;;;;;;;59.67;33.23;;;;;;;;;;4959164;28;20261;-61
2022/01/26 01:37:18;;;;;;;54.67;32.70;;;;;;;;;;4966225;28;20228;-61
2022/01/26 01:39:44;;;;;;;56.93;33.50;;;;;;;;;;4965229;28;20644;-63
2022/01/26 01:42:10;;;;;;;59.97;33.50;;;;;;;;;;4963574;28;20190;-63
2022/01/26 01:44:36;;;;;;;57.97;32.97;;;;;;;;;;4964466;28;20413;-63
2022/01/26 01:47:02;;;;;;;54.83;33.90;;;;;;;;;;4966403;28;20193;-62
2022/01/26 01:49:28;;;;;;;61.37;35.27;;;;;;;;;;4966918;28;20789;-62
2022/01/26 01:51:59;;;;;;;55.83;33.23;;;;;;;;;;4959561;28;20201;-63
2022/01/26 01:54:25;;;;;;;62.57;34.43;;;;;;;;;;4962343;28;20222;-63
2022/01/26 01:56:55;;;;;;;62.53;35.37;;;;;;;;;;4957029;28;20712;-64
2022/01/26 01:59:23;;;;;;;61.40;33.47;;;;;;;;;;4951597;28;20288;-64
2022/01/26 02:01:49;;;;;;;60.07;34.10;;;;;;;;;;4968452;28;20287;-64
2022/01/26 02:04:15;;;;;;;60.23;33.90;;;;;;;;;;4966300;28;21032;-62
2022/01/26 02:06:43;;;;;;;59.63;34.13;;;;;;;;;;4958763;28;20884;-62
2022/01/26 02:09:09;;;;;;;66.37;36.10;;;;;;;;;;4960431;28;20673;-62
2022/01/26 02:11:35;;;;;;;62.83;36.97;;;;;;;;;;4958525;28;20617;-62
2022/01/26 02:14:10;;;;;;;64.57;37.83;;;;;;;;;;4957518;28;20218;-62
2022/01/26 02:16:53;;;;;;;65.20;38.43;;;;;;;;;;4962050;28;20490;-64
2022/01/26 02:19:59;;;;;;;69.47;37.93;;;;;;;;;;4965882;28;20200;-62
2022/01/26 02:49:31;;;;;;;65.10;38.13;;;;;;;;;;4964418;28;20215;-62
2022/01/26 02:55:12;;;;;;;82.30;43.67;;;;;;;;;;4962328;28;20229;-62
2022/01/26 03:03:30;;;;;;;84.63;43.90;;;;;;;;;;4960249;28;20186;-62
2022/01/26 03:05:37;;;;;;;81.53;42.63;;;;;;;;;;4950070;28;20589;-62
2022/01/26 03:08:06;;;;;;;79.87;42.87;;;;;;;;;;4958642;28;20209;-63
2022/01/26 03:10:45;;;;;;;86.73;44.73;;;;;;;;;;4950597;28;20726;-63
2022/01/26 03:13:17;;;;;;;83.07;43.93;;;;;;;;;;4955558;28;21805;-63
2022/01/26 03:15:49;;;;;;;81.43;44.60;;;;;;;;;;4956686;28;20248;-63
2022/01/26 03:18:51;;;;;;;85.37;42.50;;;;;;;;;;4957267;28;20208;-63
2022/01/26 03:21:20;;;;;;;83.03;42.93;;;;;;;;;;4964795;28;21011;-63
2022/01/26 03:29:38;;;;;;;84.83;43.33;;;;;;;;;;4957483;28;20890;-63
2022/01/26 03:34:53;;;;;;;80.27;43.33;;;;;;;;;;4946048;28;20646;-63
2022/01/26 03:37:22;;;;;;;81.13;41.50;;;;;;;;;;4959105;28;20296;-64
2022/01/26 03:39:50;;;;;;;80.50;42.97;;;;;;;;;;4965378;28;20300;-63
2022/01/26 03:42:16;;;;;;;80.53;42.37;;;;;;;;;;4951402;28;20217;-63
2022/01/26 03:44:42;;;;;;;79.03;41.13;;;;;;;;;;4966367;28;20221;-62
2022/01/26 03:47:08;;;;;;;79.90;41.83;;;;;;;;;;4976316;28;20857;-62
2022/01/26 03:49:35;;;;;;;76.63;41.20;;;;;;;;;;4977408;28;20201;-63
2022/01/26 03:52:01;;;;;;;82.43;42.03;;;;;;;;;;4981679;28;20530;-62
2022/01/26 03:54:27;;;;;;;77.57;41.50;;;;;;;;;;4976795;28;20543;-63
2022/01/26 03:56:53;;;;;;;82.70;41.13;;;;;;;;;;4979316;28;20354;-62
2022/01/26 03:59:18;;;;;;;80.13;40.87;;;;;;;;;;4962505;28;20720;-62
2022/01/26 04:01:44;;;;;;;75.40;40.87;;;;;;;;;;4962630;28;20686;-63
2022/01/26 04:04:10;;;;;;;81.27;41.40;;;;;;;;;;4947627;28;20906;-62
2022/01/26 04:06:36;;;;;;;77.13;40.10;;;;;;;;;;4964859;28;20193;-62
2022/01/26 04:09:04;;;;;;;83.20;41.90;;;;;;;;;;4959250;28;20206;-62
2022/01/26 04:11:39;;;;;;;74.50;40.50;;;;;;;;;;4963639;28;20214;-62
2022/01/26 04:14:10;;;;;;;78.93;41.73;;;;;;;;;;4970996;28;20228;-63
2022/01/26 04:16:36;;;;;;;76.17;41.33;;;;;;;;;;4981020;28;20193;-62
2022/01/26 04:19:02;;;;;;;77.13;41.50;;;;;;;;;;4962880;28;20368;-62
2022/01/26 04:24:21;;;;;;;85.83;41.93;;;;;;;;;;4956287;28;20688;-62
2022/01/26 04:27:02;;;;;;;76.83;39.17;;;;;;;;;;4963774;28;20206;-62
2022/01/26 04:29:31;;;;;;;80.07;41.67;;;;;;;;;;4965855;28;20652;-61
2022/01/26 04:31:57;;;;;;;84.03;41.70;;;;;;;;;;4962221;28;21936;-62
2022/01/26 04:34:24;;;;;;;78.87;40.63;;;;;;;;;;4962816;28;20552;-63
2022/01/26 04:37:20;;;;;;;78.10;42.03;;;;;;;;;;4967046;28;20198;-63
2022/01/26 04:39:54;;;;;;;82.00;42.77;;;;;;;;;;4952793;28;20195;-63
2022/01/26 04:42:30;;;;;;;84.77;41.67;;;;;;;;;;4969958;28;20332;-63
2022/01/26 04:45:02;;;;;;;79.23;40.93;;;;;;;;;;4967111;28;20197;-63
2022/01/26 04:47:28;;;;;;;81.07;40.50;;;;;;;;;;4968233;28;20236;-64
2022/01/26 04:49:54;;;;;;;87.23;43.80;;;;;;;;;;4975689;28;20197;-63
2022/01/26 04:52:20;;;;;;;80.97;41.90;;;;;;;;;;4970773;28;20202;-63
2022/01/26 04:54:46;;;;;;;78.33;40.33;;;;;;;;;;4965397;28;20210;-63
2022/01/26 04:57:12;;;;;;;86.13;42.80;;;;;;;;;;4967093;28;20635;-63
2022/01/26 04:59:38;;;;;;;80.00;41.30;;;;;;;;;;4966963;28;20201;-64
2022/01/26 05:02:04;;;;;;;81.13;42.30;;;;;;;;;;4967919;28;20283;-63
2022/01/26 05:04:30;;;;;;;85.13;41.53;;;;;;;;;;4964708;28;20943;-63
2022/01/26 05:06:56;;;;;;;91.17;43.67;;;;;;;;;;4960275;28;20212;-63
2022/01/26 05:09:22;;;;;;;82.13;41.33;;;;;;;;;;4962433;28;20511;-62
2022/01/26 05:11:51;;;;;;;81.17;41.20;;;;;;;;;;4962522;28;20439;-61
2022/01/26 05:14:17;;;;;;;86.70;42.27;;;;;;;;;;4963229;28;20682;-62
2022/01/26 05:16:43;;;;;;;86.47;43.03;;;;;;;;;;4975168;28;20194;-62
2022/01/26 05:19:09;;;;;;;88.90;43.33;;;;;;;;;;4979462;28;20297;-62
2022/01/26 05:21:36;;;;;;;86.43;42.70;;;;;;;;;;4978946;28;20818;-62
2022/01/26 05:24:01;;;;;;;91.47;42.67;;;;;;;;;;4965409;28;20222;-62
2022/01/26 05:26:27;;;;;;;86.83;43.20;;;;;;;;;;4963860;28;20579;-62
2022/01/26 05:28:53;;;;;;;85.73;41.67;;;;;;;;;;4956679;28;20230;-62
2022/01/26 05:31:19;;;;;;;86.90;42.27;;;;;;;;;;4959115;28;21006;-62
2022/01/26 05:33:45;;;;;;;88.50;43.47;;;;;;;;;;4938477;28;20654;-63
2022/01/26 05:36:11;;;;;;;78.67;42.27;;;;;;;;;;4959036;28;20193;-62
2022/01/26 05:38:37;;;;;;;90.20;43.67;;;;;;;;;;4962113;28;20198;-62
2022/01/26 05:41:04;;;;;;;86.77;40.77;;;;;;;;;;4963242;28;20233;-62
2022/01/26 05:43:30;;;;;;;82.97;40.93;;;;;;;;;;4957753;28;20209;-63
2022/01/26 05:46:01;;;;;;;83.70;41.90;;;;;;;;;;4963349;28;20820;-62
2022/01/26 05:48:27;;;;;;;87.07;41.57;;;;;;;;;;4965716;28;20200;-63
2022/01/26 05:50:56;;;;;;;81.83;39.20;;;;;;;;;;4946932;28;21328;-62
2022/01/26 05:53:22;;;;;;;90.30;40.60;;;;;;;;;;4957979;28;20229;-63
2022/01/26 05:55:51;;;;;;;80.43;40.23;;;;;;;;;;4963741;28;20201;-64
2022/01/26 05:58:17;;;;;;;81.87;40.60;;;;;;;;;;4962755;28;20203;-64
2022/01/26 06:00:43;;;;;;;82.93;39.00;;;;;;;;;;4965256;28;20236;-62
2022/01/26 06:03:09;;;;;;;87.70;41.23;;;;;;;;;;4965502;28;20698;-62
2022/01/26 06:05:35;;;;;;;87.40;41.10;;;;;;;;;;4955613;28;20197;-63
2022/01/26 06:08:01;;;;;;;87.77;40.57;;;;;;;;;;4963613;28;20228;-63
2022/01/26 06:10:27;;;;;;;91.87;40.97;;;;;;;;;;4963865;28;21223;-62
2022/01/26 06:12:53;;;;;;;82.37;39.60;;;;;;;;;;4960169;28;20204;-62
2022/01/26 06:15:20;;;;;;;87.63;39.60;;;;;;;;;;4957231;28;20303;-62
2022/01/26 06:17:46;;;;;;;92.20;40.23;;;;;;;;;;4954757;28;20791;-62
2022/01/26 06:20:11;;;;;;;95.33;41.97;;;;;;;;;;4963851;28;20196;-61
2022/01/26 06:22:38;;;;;;;91.37;40.97;;;;;;;;;;4964801;28;20310;-62
2022/01/26 06:25:06;;;;;;;92.77;41.67;;;;;;;;;;4952859;28;20263;-60
2022/01/26 06:27:33;;;;;;;93.67;42.43;;;;;;;;;;4951913;28;20304;-62
2022/01/26 06:29:58;;;;;;;87.97;41.60;;;;;;;;;;4964810;28;21789;-61
2022/01/26 06:32:24;;;;;;;90.10;41.07;;;;;;;;;;4953115;28;20267;-62
2022/01/26 06:34:50;;;;;;;90.37;40.73;;;;;;;;;;4969729;28;20624;-61
2022/01/26 06:37:16;;;;;;;86.63;41.00;;;;;;;;;;4980471;28;20218;-61
2022/01/26 06:39:43;;;;;;;85.97;40.93;;;;;;;;;;4971395;28;20228;-64
2022/01/26 06:42:15;;;;;;;93.27;42.57;;;;;;;;;;4972774;28;20202;-64
2022/01/26 06:45:10;;;;;;;87.40;42.23;;;;;;;;;;4971636;28;20662;-63
2022/01/26 06:48:44;;;;;;;90.40;41.90;;;;;;;;;;4970967;28;20225;-64
2022/01/26 06:50:31;;;;;;;88.03;42.27;;;;;;;;;;4956727;28;22269;-63
2022/01/26 06:52:57;;;;;;;95.07;43.90;;;;;;;;;;4970215;28;20198;-64
2022/01/26 06:55:23;;;;;;;89.17;41.07;;;;;;;;;;4965739;28;20247;-63
2022/01/26 06:57:49;;;;;;;94.50;42.33;;;;;;;;;;4965831;28;20194;-63
2022/01/26 07:00:15;;;;;;;93.80;41.70;;;;;;;;;;4970940;28;20515;-63
2022/01/26 07:02:41;;;;;;;89.83;44.60;;;;;;;;;;4972885;28;20194;-62
2022/01/26 07:05:08;;;;;;;91.20;41.50;;;;;;;;;;4972208;28;20821;-64
2022/01/26 07:07:34;;;;;;;94.63;43.07;;;;;;;;;;4955764;28;20202;-63
2022/01/26 07:10:00;;;;;;;97.90;43.43;;;;;;;;;;4961535;28;20574;-63
2022/01/26 07:12:26;;;;;;;96.47;43.00;;;;;;;;;;4974742;28;20186;-62
2022/01/26 07:23:02;;;;;;;97.17;43.40;;;;;;;;;;4972245;28;20292;-64
2022/01/26 07:25:28;;;;;;;104.23;44.73;;;;;;;;;;4965985;28;20285;-63
2022/01/26 07:27:56;;;;;;;100.27;43.97;;;;;;;;;;4976919;28;21917;-63
2022/01/26 07:30:22;;;;;;;97.03;42.27;;;;;;;;;;4971164;28;20248;-63
2022/01/26 07:32:48;;;;;;;99.63;43.60;;;;;;;;;;4974449;28;20201;-63
2022/01/26 07:35:14;;;;;;;98.27;44.30;;;;;;;;;;4978110;28;20209;-63
2022/01/26 07:37:40;;;;;;;101.63;43.43;;;;;;;;;;4975315;28;20353;-62
2022/01/26 07:40:06;;;;;;;104.50;44.80;;;;;;;;;;4977814;28;20578;-63
2022/01/26 07:42:36;;;;;;;100.83;43.47;;;;;;;;;;4975736;28;20197;-63
2022/01/26 07:45:02;;;;;;;97.43;42.17;;;;;;;;;;4946019;28;20212;-62
2022/01/26 07:47:31;;;;;;;102.93;45.13;;;;;;;;;;4978559;28;20966;-62
2022/01/26 07:49:57;;;;;;;102.93;46.03;;;;;;;;;;4988033;28;20220;-63
2022/01/26 07:52:25;;;;;;;104.57;46.07;;;;;;;;;;4993059;28;20246;-62
2022/01/26 07:54:52;;;;;;;99.27;44.63;;;;;;;;;;4979652;28;20229;-62
2022/01/26 07:57:19;;;;;;;90.63;42.67;;;;;;;;;;4972742;28;20670;-63
2022/01/26 07:59:45;;;;;;;101.60;43.70;;;;;;;;;;4971810;28;20502;-63
2022/01/26 08:02:11;;;;;;;97.70;43.17;;;;;;;;;;4979522;28;20197;-63
2022/01/26 08:04:37;;;;;;;96.77;43.60;;;;;;;;;;4977450;28;20212;-63
2022/01/26 08:07:03;;;;;;;91.60;42.40;;;;;;;;;;4976256;28;20208;-64
2022/01/26 08:09:29;;;;;;;94.07;41.70;;;;;;;;;;4957542;28;20599;-64
2022/01/26 08:11:55;;;;;;;88.10;41.27;;;;;;;;;;4975362;28;20213;-64
2022/01/26 08:14:21;;;;;;;93.83;42.20;;;;;;;;;;4971294;28;20253;-63
2022/01/26 08:16:47;;;;;;;94.10;43.37;;;;;;;;;;4968311;28;20201;-62
2022/01/26 08:19:13;;;;;;;93.17;43.00;;;;;;;;;;4954468;28;20181;-64
2022/01/26 08:21:41;;;;;;;93.80;42.87;;;;;;;;;;4959351;28;21547;-63
2022/01/26 08:24:14;;;;;;;100.63;45.07;;;;;;;;;;4957172;28;20866;-63
2022/01/26 08:26:45;;;;;;;90.83;41.53;;;;;;;;;;4956777;28;20194;-62
2022/01/26 08:29:17;;;;;;;92.87;41.50;;;;;;;;;;4957194;28;20256;-63
2022/01/26 08:31:43;;;;;;;92.80;41.93;;;;;;;;;;4964355;28;20236;-63
2022/01/26 08:34:09;;;;;;;91.63;43.00;;;;;;;;;;4969110;28;20292;-63
2022/01/26 08:36:35;;;;;;;92.90;42.20;;;;;;;;;;4957346;28;20467;-62
2022/01/26 08:39:01;;;;;;;94.27;42.07;;;;;;;;;;4958433;28;20204;-62
2022/01/26 08:41:28;;;;;;;87.80;41.70;;;;;;;;;;4941562;28;20639;-62
2022/01/26 08:43:54;;;;;;;95.00;42.20;;;;;;;;;;4955246;28;20640;-62
2022/01/26 08:46:20;;;;;;;92.87;40.63;;;;;;;;;;4958781;28;20367;-62
2022/01/26 08:48:46;;;;;;;92.10;43.13;;;;;;;;;;4951085;28;20194;-62
2022/01/26 08:51:12;;;;;;;97.20;42.53;;;;;;;;;;4955684;28;20194;-62
2022/01/26 08:53:38;;;;;;;89.97;42.50;;;;;;;;;;4952013;28;20602;-62
2022/01/26 08:56:04;;;;;;;97.63;42.67;;;;;;;;;;4936302;28;20208;-62
2022/01/26 08:58:29;;;;;;;90.33;43.33;;;;;;;;;;4956150;28;20220;-63
2022/01/26 09:00:55;;;;;;;92.90;43.20;;;;;;;;;;4946964;28;20191;-64
2022/01/26 09:03:22;;;;;;;87.70;41.07;;;;;;;;;;4946589;28;20295;-64
2022/01/26 09:05:48;;;;;;;93.90;43.27;;;;;;;;;;4941574;28;20244;-62
2022/01/26 09:08:14;;;;;;;91.40;43.20;;;;;;;;;;4950571;28;20958;-62
2022/01/26 09:10:41;;;;;;;95.00;43.30;;;;;;;;;;4960138;28;21277;-63
2022/01/26 09:13:07;;;;;;;90.37;43.20;;;;;;;;;;4953874;28;20204;-62
2022/01/26 09:15:33;;;;;;;93.37;42.43;;;;;;;;;;4955057;28;20222;-64
2022/01/26 09:18:01;;;;;;;90.13;42.07;;;;;;;;;;4957848;28;20232;-63
2022/01/26 09:20:27;;;;;;;91.63;43.13;;;;;;;;;;4930744;28;20792;-63
2022/01/26 09:22:54;;;;;;;93.93;42.30;;;;;;;;;;4934548;28;20718;-63
2022/01/26 09:25:20;;;;;;;97.70;42.63;;;;;;;;;;4949870;28;20209;-65
2022/01/26 09:27:46;;;;;;;91.10;42.63;;;;;;;;;;4952899;28;20321;-63
2022/01/26 09:30:12;;;;;;;96.17;43.27;;;;;;;;;;4957707;28;20197;-63
2022/01/26 09:32:38;;;;;;;92.83;42.00;;;;;;;;;;4955944;28;20651;-63
2022/01/26 09:35:05;;;;;;;95.20;42.07;;;;;;;;;;4966930;28;20221;-63
2022/01/26 09:37:31;;;;;;;91.83;40.97;;;;;;;;;;4968503;28;20244;-63
2022/01/26 09:39:56;;;;;;;99.60;42.23;;;;;;;;;;4960866;28;20621;-64
2022/01/26 09:42:23;;;;;;;95.03;43.47;;;;;;;;;;4947372;28;20316;-64
2022/01/26 09:44:49;;;;;;;95.83;42.43;;;;;;;;;;4956686;28;20194;-63
2022/01/26 09:47:15;;;;;;;96.77;42.13;;;;;;;;;;4957360;28;20204;-64
2022/01/26 09:49:41;;;;;;;92.23;42.60;;;;;;;;;;4951309;28;20703;-64
2022/01/26 09:52:19;;;;;;;100.80;43.20;;;;;;;;;;4955289;28;20733;-64
2022/01/26 09:54:45;;;;;;;100.80;43.93;;;;;;;;;;4938127;28;20575;-64
2022/01/26 09:57:11;;;;;;;91.43;43.17;;;;;;;;;;4952731;28;20340;-63
2022/01/26 09:59:37;;;;;;;98.20;43.17;;;;;;;;;;4957649;28;20195;-64
2022/01/26 10:02:03;;;;;;;90.57;40.30;;;;;;;;;;4954403;28;20194;-64
2022/01/26 10:04:32;;;;;;;95.67;42.83;;;;;;;;;;4937109;28;20978;-64
2022/01/26 10:07:22;;;;;;;98.03;41.63;;;;;;;;;;4952467;28;20292;-64
2022/01/26 10:15:30;;;;;;;100.20;43.27;;;;;;;;;;4957722;28;20953;-64
2022/01/26 10:18:17;;;;;;;92.13;41.60;;;;;;;;;;4953248;28;20208;-64
2022/01/26 10:20:45;;;;;;;99.47;43.63;;;;;;;;;;4953332;28;22166;-64
2022/01/26 10:23:13;;;;;;;100.77;42.43;;;;;;;;;;4950042;28;21075;-64
2022/01/26 10:25:41;;;;;;;102.43;44.43;;;;;;;;;;4943793;28;20324;-64
2022/01/26 10:28:09;;;;;;;103.73;43.03;;;;;;;;;;4954728;28;20224;-64
2022/01/26 10:30:35;;;;;;;102.73;44.53;;;;;;;;;;4934885;28;20900;-64
2022/01/26 10:33:06;;;;;;;100.23;41.77;;;;;;;;;;4950964;28;20197;-64
2022/01/26 10:35:32;;;;;;;103.57;44.97;;;;;;;;;;4933458;28;20325;-63
2022/01/26 10:37:58;;;;;;;100.53;42.40;;;;;;;;;;4942339;28;20186;-64
2022/01/26 10:40:26;;;;;;;99.30;42.20;;;;;;;;;;4954956;28;20190;-66
2022/01/26 10:42:53;;;;;;;103.77;42.67;;;;;;;;;;4956931;28;20306;-67
2022/01/26 10:45:30;;;;;;;102.27;43.93;;;;;;;;;;4954039;28;20370;-65
2022/01/26 10:48:07;;;;;;;102.47;42.57;;;;;;;;;;4957548;28;20737;-64
2022/01/26 10:53:06;;;;;;;103.40;42.17;;;;;;;;;;4983078;28;20565;-64
2022/01/26 10:55:32;;;;;;;108.23;44.63;;;;;;;;;;4990803;28;20344;-63
2022/01/26 10:57:58;;;;;;;103.43;43.07;;;;;;;;;;4972455;28;20200;-64
2022/01/26 11:00:24;;;;;;;98.37;41.67;;;;;;;;;;4971629;28;20197;-64
2022/01/26 11:02:50;;;;;;;103.00;41.40;;;;;;;;;;4964499;28;20202;-63
2022/01/26 11:05:16;;;;;;;99.83;42.77;;;;;;;;;;4973229;28;20202;-64
2022/01/26 11:07:42;;;;;;;103.77;41.47;;;;;;;;;;4975865;28;20205;-64
2022/01/26 11:10:08;;;;;;;102.23;41.63;;;;;;;;;;4960576;28;20649;-64
2022/01/26 11:12:34;;;;;;;96.27;40.63;;;;;;;;;;4975026;28;20559;-63
2022/01/26 11:15:07;;;;;;;95.73;41.07;;;;;;;;;;4978348;28;20301;-63
2022/01/26 11:17:35;;;;;;;104.03;43.07;;;;;;;;;;4993594;28;20200;-63
2022/01/26 11:20:03;;;;;;;95.40;39.37;;;;;;;;;;4982006;28;20264;-64
2022/01/26 11:22:31;;;;;;;96.83;37.97;;;;;;;;;;4973492;28;20291;-63
2022/01/26 11:25:10;;;;;;;91.50;37.87;;;;;;;;;;4972863;28;21174;-64
2022/01/26 11:27:36;;;;;;;89.67;38.47;;;;;;;;;;4951126;28;20248;-64
2022/01/26 11:30:05;;;;;;;86.80;35.73;;;;;;;;;;4953065;28;22621;-63
2022/01/26 11:32:38;;;;;;;85.60;35.83;;;;;;;;;;4956729;28;20312;-62
2022/01/26 11:35:07;;;;;;;73.23;32.43;;;;;;;;;;4976131;28;20232;-63
2022/01/26 11:37:44;;;;;;;76.77;34.10;;;;;;;;;;4976245;28;20283;-63
2022/01/26 11:45:31;;;;;;;69.83;30.33;;;;;;;;;;4967292;28;20300;-64
2022/01/26 11:48:09;;;;;;;67.70;32.90;;;;;;;;;;4977445;28;21193;-63
2022/01/26 11:50:36;;;;;;;67.73;29.53;;;;;;;;;;4976756;28;20216;-63
2022/01/26 11:53:06;;;;;;;64.73;28.73;;;;;;;;;;4995083;28;20651;-63
2022/01/26 11:55:43;;;;;;;65.73;29.27;;;;;;;;;;4970902;28;20671;-63
2022/01/26 11:58:10;;;;;;;68.30;30.30;;;;;;;;;;4990985;28;20729;-63
2022/01/26 12:00:43;;;;;;;64.07;28.63;;;;;;;;;;4959938;28;20437;-63
2022/01/26 12:03:19;;;;;;;64.13;29.23;;;;;;;;;;4977374;28;20604;-63
2022/01/26 12:05:46;;;;;;;61.33;29.40;;;;;;;;;;4973415;28;20208;-63
2022/01/26 12:08:12;;;;;;;56.77;27.00;;;;;;;;;;4975403;28;20197;-63
2022/01/26 12:10:39;;;;;;;63.23;29.13;;;;;;;;;;4973814;28;20685;-64
2022/01/26 12:13:16;;;;;;;60.03;28.53;;;;;;;;;;4971626;28;20201;-63
2022/01/26 12:15:58;;;;;;;66.87;28.77;;;;;;;;;;4955825;28;20740;-62
2022/01/26 12:18:42;;;;;;;60.30;27.03;;;;;;;;;;4975241;28;20199;-63
2022/01/26 12:37:15;;;;;;;58.70;28.30;;;;;;;;;;4975441;28;20199;-62
2022/01/26 12:45:08;;;;;;;59.47;27.53;;;;;;;;;;4958300;28;20210;-63
2022/01/26 12:47:34;;;;;;;59.57;28.07;;;;;;;;;;4972710;28;20230;-62
2022/01/26 12:50:00;;;;;;;53.73;27.97;;;;;;;;;;4968627;28;20490;-62
2022/01/26 12:52:26;;;;;;;58.57;27.70;;;;;;;;;;4954416;28;20256;-63
2022/01/26 12:54:52;;;;;;;59.20;28.43;;;;;;;;;;4952951;28;20225;-65
2022/01/26 12:57:18;;;;;;;57.90;29.30;;;;;;;;;;4971583;28;20248;-63
2022/01/26 12:59:44;;;;;;;61.13;29.93;;;;;;;;;;4969911;28;20198;-64
2022/01/26 13:02:10;;;;;;;58.63;29.40;;;;;;;;;;4957058;28;20722;-64
2022/01/26 13:04:35;;;;;;;65.67;31.60;;;;;;;;;;4974521;28;20198;-64
2022/01/26 13:07:01;;;;;;;63.47;31.63;;;;;;;;;;4975253;28;20202;-64
2022/01/26 13:09:29;;;;;;;61.70;30.83;;;;;;;;;;4970787;28;20197;-62
2022/01/26 13:11:57;;;;;;;69.53;31.63;;;;;;;;;;4977293;28;20427;-64
2022/01/26 13:14:29;;;;;;;65.47;30.60;;;;;;;;;;4957258;28;20446;-62
2022/01/26 13:17:12;;;;;;;60.80;30.00;;;;;;;;;;4972249;28;20615;-63
2022/01/26 13:27:34;;;;;;;66.10;31.67;;;;;;;;;;4977736;28;20663;-63
2022/01/26 13:30:23;;;;;;;65.87;31.40;;;;;;;;;;4968890;28;20177;-62
2022/01/26 13:33:16;;;;;;;64.70;30.10;;;;;;;;;;4961236;28;20190;-63
2022/01/26 13:44:38;;;;;;;58.47;28.87;;;;;;;;;;4970045;28;20267;-63
2022/01/26 13:59:48;;;;;;;59.20;29.53;;;;;;;;;;4967034;28;20217;-63
2022/01/26 14:02:14;;;;;;;63.03;29.97;;;;;;;;;;4972033;28;20759;-62
2022/01/26 14:04:40;;;;;;;65.87;31.07;;;;;;;;;;4969068;28;20206;-62
2022/01/26 14:07:06;;;;;;;61.80;30.77;;;;;;;;;;4945291;28;20730;-63
2022/01/26 14:09:33;;;;;;;61.37;30.40;;;;;;;;;;4939288;28;20212;-62
2022/01/26 14:12:00;;;;;;;64.23;30.37;;;;;;;;;;4968503;28;20208;-63
2022/01/26 14:14:34;;;;;;;61.30;30.43;;;;;;;;;;4965442;28;20216;-63
2022/01/26 14:17:01;;;;;;;62.33;31.37;;;;;;;;;;4947089;28;20356;-62
2022/01/26 14:20:06;;;;;;;65.83;31.17;;;;;;;;;;4971784;28;20280;-63
2022/01/26 14:25:14;;;;;;;61.20;30.67;;;;;;;;;;4959263;28;20559;-63
2022/01/26 14:27:45;;;;;;;61.80;29.83;;;;;;;;;;4974322;28;20779;-63
2022/01/26 14:33:08;;;;;;;58.37;30.47;;;;;;;;;;4974431;28;21013;-62
2022/01/26 14:52:09;;;;;;;59.50;29.60;;;;;;;;;;4960994;28;20681;-62
2022/01/26 15:00:47;;;;;;;62.77;28.70;;;;;;;;;;4973629;28;20692;-63
2022/01/26 15:08:50;;;;;;;63.23;29.97;;;;;;;;;;4969836;28;20197;-63
2022/01/26 15:12:11;;;;;;;55.60;27.83;;;;;;;;;;4973719;28;20251;-62
2022/01/26 15:30:23;;;;;;;55.50;28.17;;;;;;;;;;4976945;28;20209;-64
2022/01/26 15:50:55;;;;;;;58.83;27.10;;;;;;;;;;4969304;28;20658;-62
2022/01/26 15:59:21;;;;;;;57.70;28.20;;;;;;;;;;4976652;28;20240;-64
2022/01/26 16:07:11;;;;;;;57.77;27.63;;;;;;;;;;4969246;28;20209;-63
2022/01/26 16:18:23;;;;;;;54.87;26.83;;;;;;;;;;4971744;28;20230;-63
2022/01/26 17:12:11;;;;;;;58.40;27.07;;;;;;;;;;4972823;28;22087;-63
2022/01/26 17:47:59;;;;;;;56.07;27.07;;;;;;;;;;4956459;28;20236;-62
2022/01/26 18:17:49;;;;;;;53.13;24.90;;;;;;;;;;4959152;28;20204;-65
2022/01/26 18:39:53;;;;;;;54.17;27.63;;;;;;;;;;4968166;28;20899;-62
2022/01/26 18:50:22;;;;;;;49.67;26.53;;;;;;;;;;4956925;28;20205;-64
2022/01/26 18:52:48;;;;;;;55.47;26.47;;;;;;;;;;4983486;28;20242;-61
2022/01/26 18:55:14;;;;;;;52.80;25.17;;;;;;;;;;4973739;28;20225;-61
2022/01/26 18:57:41;;;;;;;51.53;25.90;;;;;;;;;;4962344;28;20203;-62
2022/01/26 19:00:07;;;;;;;48.10;24.47;;;;;;;;;;4965555;28;20256;-62
2022/01/26 19:02:33;;;;;;;49.70;25.50;;;;;;;;;;4962398;28;21122;-62
2022/01/26 19:04:59;;;;;;;51.60;25.57;;;;;;;;;;4963555;28;20540;-62
2022/01/26 19:07:25;;;;;;;50.60;25.90;;;;;;;;;;4966510;28;20189;-61
2022/01/26 19:09:52;;;;;;;51.83;26.47;;;;;;;;;;4945049;28;20245;-62
2022/01/26 19:12:19;;;;;;;50.47;24.57;;;;;;;;;;4963289;28;20804;-62
2022/01/26 19:14:51;;;;;;;51.23;24.60;;;;;;;;;;4969938;28;20237;-62
2022/01/26 19:17:24;;;;;;;45.83;24.07;;;;;;;;;;4969138;28;20190;-62
2022/01/26 19:20:17;;;;;;;50.67;25.57;;;;;;;;;;4969627;28;20202;-62
2022/01/26 19:25:36;;;;;;;48.07;25.30;;;;;;;;;;4974527;28;20244;-61
2022/01/26 19:44:15;;;;;;;48.17;23.43;;;;;;;;;;4961625;28;20200;-62
2022/01/26 19:52:09;;;;;;;45.00;23.00;;;;;;;;;;4966988;28;20713;-61
2022/01/26 19:54:36;;;;;;;47.20;23.00;;;;;;;;;;4966850;28;20214;-62
2022/01/26 19:57:03;;;;;;;47.73;23.80;;;;;;;;;;4968497;28;20209;-62
2022/01/26 19:59:29;;;;;;;44.57;23.47;;;;;;;;;;4970949;28;20201;-62
2022/01/26 20:01:55;;;;;;;45.10;24.20;;;;;;;;;;4964481;28;20695;-63
2022/01/26 20:04:21;;;;;;;44.83;23.27;;;;;;;;;;4950635;28;20643;-61
2022/01/26 20:06:47;;;;;;;46.27;22.13;;;;;;;;;;4971220;28;20569;-61
2022/01/26 20:09:28;;;;;;;45.23;23.97;;;;;;;;;;4974558;28;20198;-62
2022/01/26 20:12:03;;;;;;;43.67;23.70;;;;;;;;;;4971313;28;20594;-62
2022/01/26 20:14:33;;;;;;;41.07;21.97;;;;;;;;;;4964695;28;20210;-63
2022/01/26 20:17:00;;;;;;;50.00;23.27;;;;;;;;;;4983638;28;20781;-62
2022/01/26 20:19:26;;;;;;;43.63;21.40;;;;;;;;;;4959234;28;20198;-61
2022/01/26 20:21:52;;;;;;;47.40;23.57;;;;;;;;;;4967395;28;20686;-61
2022/01/26 20:24:18;;;;;;;42.33;22.13;;;;;;;;;;4973043;28;20201;-62
2022/01/26 20:26:44;;;;;;;43.93;22.87;;;;;;;;;;4975761;28;20659;-61
2022/01/26 20:29:10;;;;;;;43.13;22.90;;;;;;;;;;4989513;28;20691;-61
2022/01/26 20:31:36;;;;;;;41.43;20.87;;;;;;;;;;4972783;28;20516;-62
2022/01/26 20:34:02;;;;;;;40.43;21.20;;;;;;;;;;4970969;28;20196;-61
2022/01/26 20:36:29;;;;;;;44.47;21.07;;;;;;;;;;4969950;28;20248;-62
2022/01/26 20:39:01;;;;;;;41.83;21.30;;;;;;;;;;4971061;28;20647;-62
2022/01/26 20:41:28;;;;;;;41.20;20.83;;;;;;;;;;4971797;28;20233;-62
2022/01/26 20:43:53;;;;;;;41.90;21.30;;;;;;;;;;4973927;28;20284;-62
2022/01/26 20:46:19;;;;;;;50.00;23.73;;;;;;;;;;4952144;28;20194;-63
2022/01/26 20:48:45;;;;;;;45.33;22.23;;;;;;;;;;4969449;28;20229;-62
2022/01/26 20:51:11;;;;;;;45.30;21.23;;;;;;;;;;4970042;28;20290;-60
2022/01/26 20:53:39;;;;;;;43.37;21.63;;;;;;;;;;4965683;28;20206;-61
2022/01/26 20:56:05;;;;;;;48.40;22.67;;;;;;;;;;4976438;28;20221;-61
2022/01/26 20:58:31;;;;;;;42.73;22.03;;;;;;;;;;4978197;28;20276;-63